createdAt,value
2023-03-21T00:02:19.883Z,15.55
2023-03-21T00:04:52.283Z,16.77
2023-03-21T00:07:21.237Z,14.73
2023-03-21T00:09:48.745Z,16.75
2023-03-21T00:12:16.738Z,16.45
2023-03-21T00:14:44.746Z,17.20
2023-03-21T00:17:15.853Z,15.77
2023-03-21T00:19:44.851Z,15.55
2023-03-21T00:22:12.369Z,15.23
2023-03-21T00:24:40.612Z,15.07
2023-03-21T00:27:39.346Z,15.60
2023-03-21T00:29:56.181Z,15.35
2023-03-21T00:32:25.298Z,15.05
2023-03-21T00:37:40.755Z,15.32
2023-03-21T00:40:23.033Z,14.13
2023-03-21T00:42:53.365Z,15.93
2023-03-21T00:45:22.075Z,15.75
2023-03-21T00:47:51.240Z,16.77
2023-03-21T00:50:19.000Z,16.30
2023-03-21T00:52:46.619Z,17.38
2023-03-21T00:55:16.071Z,18.10
2023-03-21T00:57:47.483Z,17.92
2023-03-21T01:00:20.590Z,17.27
2023-03-21T01:03:14.163Z,17.98
2023-03-21T01:06:04.986Z,17.70
2023-03-21T01:08:48.652Z,19.30
2023-03-21T01:11:21.660Z,17.92
2023-03-21T01:14:07.320Z,17.73
2023-03-21T01:16:37.547Z,18.20
2023-03-21T01:19:09.464Z,17.48
2023-03-21T01:21:44.451Z,17.77
2023-03-21T01:24:12.272Z,18.75
2023-03-21T01:26:40.218Z,17.75
2023-03-21T01:29:07.892Z,18.92
2023-03-21T01:31:35.696Z,18.17
2023-03-21T01:34:03.413Z,18.30
2023-03-21T01:36:31.592Z,18.35
2023-03-21T01:39:06.853Z,18.35
2023-03-21T01:41:42.869Z,17.98
2023-03-21T01:44:19.081Z,18.88
2023-03-21T01:46:57.421Z,19.45
2023-03-21T01:49:57.416Z,18.58
2023-03-21T01:52:39.425Z,18.15
2023-03-21T01:55:16.074Z,19.67
2023-03-21T01:58:05.220Z,18.52
2023-03-21T02:00:46.650Z,18.13
2023-03-21T02:03:35.668Z,18.50
2023-03-21T02:06:31.729Z,17.27
2023-03-21T02:09:10.011Z,18.55
2023-03-21T02:11:39.893Z,19.08
2023-03-21T02:14:10.090Z,19.48
2023-03-21T02:17:00.237Z,19.33
2023-03-21T02:20:17.197Z,19.10
2023-03-21T02:23:04.848Z,20.20
2023-03-21T02:26:03.295Z,19.42
2023-03-21T02:28:37.716Z,19.45
2023-03-21T02:31:29.425Z,20.00
2023-03-21T02:34:19.875Z,20.55
2023-03-21T02:36:55.540Z,20.42
2023-03-21T02:39:27.540Z,20.48
2023-03-21T02:42:04.441Z,20.73
2023-03-21T02:44:42.531Z,21.45
2023-03-21T02:47:14.312Z,21.55
2023-03-21T02:49:51.253Z,21.17
2023-03-21T02:52:37.930Z,21.70
2023-03-21T02:55:13.826Z,22.00
2023-03-21T02:57:50.821Z,21.13
2023-03-21T03:00:22.971Z,20.88
2023-03-21T03:03:02.542Z,21.00
2023-03-21T03:05:36.888Z,21.95
2023-03-21T03:08:18.481Z,21.38
2023-03-21T03:11:02.706Z,21.33
2023-03-21T03:13:41.849Z,19.40
2023-03-21T03:16:21.282Z,21.42
2023-03-21T03:18:53.718Z,21.15
2023-03-21T03:21:29.445Z,20.33
2023-03-21T03:24:02.773Z,19.95
2023-03-21T03:26:36.584Z,21.58
2023-03-21T03:29:07.282Z,21.80
2023-03-21T03:31:42.231Z,22.42
2023-03-21T03:34:13.695Z,21.98
2023-03-21T03:36:51.526Z,21.10
2023-03-21T03:39:20.788Z,20.65
2023-03-21T03:42:27.452Z,21.52
2023-03-21T03:44:52.764Z,22.15
2023-03-21T03:47:32.771Z,22.35
2023-03-21T03:50:09.784Z,23.20
2023-03-21T03:52:50.124Z,24.05
2023-03-21T03:55:27.223Z,24.70
2023-03-21T03:57:57.848Z,25.20
2023-03-21T04:00:25.628Z,23.33
2023-03-21T04:02:53.329Z,23.58
2023-03-21T04:05:24.374Z,23.80
2023-03-21T04:07:52.116Z,23.13
2023-03-21T04:10:28.210Z,23.98
2023-03-21T04:12:55.996Z,23.65
2023-03-21T04:15:32.406Z,21.73
2023-03-21T04:18:07.500Z,22.65
2023-03-21T04:20:37.283Z,23.35
2023-03-21T04:23:06.587Z,22.17
2023-03-21T04:25:38.737Z,21.70
2023-03-21T04:28:08.150Z,20.88
2023-03-21T04:31:00.341Z,20.83
2023-03-21T04:33:31.777Z,19.83
2023-03-21T04:36:00.280Z,20.33
2023-03-21T04:38:33.854Z,21.25
2023-03-21T04:41:05.728Z,21.10
2023-03-21T04:43:33.272Z,20.52
2023-03-21T04:46:00.994Z,21.73
2023-03-21T04:48:28.959Z,21.23
2023-03-21T04:50:57.504Z,21.02
2023-03-21T04:53:25.415Z,20.25
2023-03-21T04:55:55.351Z,20.90
2023-03-21T04:58:25.080Z,20.60
2023-03-21T05:00:53.226Z,21.17
2023-03-21T05:03:21.906Z,20.35
2023-03-21T05:05:50.436Z,22.65
2023-03-21T05:08:19.727Z,22.23
2023-03-21T05:10:47.509Z,23.23
2023-03-21T05:13:15.441Z,20.90
2023-03-21T05:15:44.288Z,22.08
2023-03-21T05:18:11.960Z,22.92
2023-03-21T05:20:55.264Z,21.10
2023-03-21T05:23:25.181Z,21.08
2023-03-21T05:25:53.008Z,21.23
2023-03-21T05:28:36.655Z,20.85
2023-03-21T05:31:07.134Z,18.77
2023-03-21T05:33:34.792Z,21.40
2023-03-21T05:36:02.452Z,21.05
2023-03-21T05:38:33.148Z,20.27
2023-03-21T05:41:01.176Z,19.48
2023-03-21T05:43:29.264Z,20.42
2023-03-21T05:45:57.072Z,20.17
2023-03-21T05:48:26.812Z,20.33
2023-03-21T05:51:15.568Z,19.33
2023-03-21T05:53:43.102Z,20.17
2023-03-21T05:56:11.594Z,21.73
2023-03-21T05:58:45.163Z,20.10
2023-03-21T06:01:12.885Z,20.55
2023-03-21T06:03:45.997Z,21.27
2023-03-21T06:06:17.346Z,20.40
2023-03-21T06:08:54.823Z,21.30
2023-03-21T06:11:26.942Z,21.02
2023-03-21T06:14:13.970Z,21.40
2023-03-21T06:16:42.742Z,21.40
2023-03-21T06:19:11.680Z,20.17
2023-03-21T06:22:11.601Z,19.60
2023-03-21T06:24:41.577Z,20.50
2023-03-21T06:27:09.232Z,21.48
2023-03-21T06:29:49.022Z,20.88
2023-03-21T06:32:17.138Z,20.98
2023-03-21T06:34:47.271Z,19.92
2023-03-21T06:37:16.385Z,20.30
2023-03-21T06:39:44.298Z,21.60
2023-03-21T06:42:12.382Z,22.33
2023-03-21T06:44:40.442Z,22.35
2023-03-21T06:47:13.021Z,22.70
2023-03-21T06:49:43.680Z,21.15
2023-03-21T06:52:14.159Z,20.80
2023-03-21T06:54:42.225Z,21.00
2023-03-21T06:57:15.414Z,20.23
2023-03-21T06:59:42.939Z,20.67
2023-03-21T07:02:15.116Z,20.58
2023-03-21T07:04:48.871Z,19.02
2023-03-21T07:07:27.181Z,20.23
2023-03-21T07:09:54.681Z,20.17
2023-03-21T07:12:23.488Z,21.10
2023-03-21T07:15:15.175Z,19.02
2023-03-21T07:17:44.757Z,20.30
2023-03-21T07:20:14.099Z,19.48
2023-03-21T07:22:43.745Z,20.88
2023-03-21T07:25:12.021Z,19.90
2023-03-21T07:27:41.407Z,20.77
2023-03-21T07:30:11.036Z,20.98
2023-03-21T07:32:38.756Z,18.08
2023-03-21T07:35:07.281Z,20.13
2023-03-21T07:37:37.496Z,20.63
2023-03-21T07:40:10.656Z,19.23
2023-03-21T07:42:39.617Z,19.92
2023-03-21T07:45:08.551Z,20.40
2023-03-21T07:47:36.784Z,19.83
2023-03-21T07:50:05.372Z,19.75
2023-03-21T07:52:33.301Z,20.98
2023-03-21T07:55:00.867Z,22.40
2023-03-21T07:57:29.724Z,21.88
2023-03-21T07:59:58.341Z,22.30
2023-03-21T08:02:26.588Z,24.20
2023-03-21T08:04:54.197Z,23.98
2023-03-21T08:07:21.855Z,23.40
2023-03-21T08:09:49.371Z,24.50
2023-03-21T08:12:16.944Z,22.55
2023-03-21T08:14:46.118Z,23.50
2023-03-21T08:17:13.658Z,22.02
2023-03-21T08:19:41.219Z,21.23
2023-03-21T08:22:08.718Z,22.17
2023-03-21T08:24:36.251Z,22.02
2023-03-21T08:27:03.794Z,21.80
2023-03-21T08:29:31.403Z,22.45
2023-03-21T08:32:00.344Z,21.05
2023-03-21T08:34:27.880Z,22.27
2023-03-21T08:36:55.452Z,22.80
2023-03-21T08:39:24.816Z,21.13
2023-03-21T08:41:52.423Z,20.67
2023-03-21T08:44:20.115Z,20.48
2023-03-21T08:46:47.762Z,20.75
2023-03-21T08:49:16.738Z,20.02
2023-03-21T08:51:45.547Z,21.30
2023-03-21T08:54:20.577Z,19.10
2023-03-21T08:56:48.300Z,20.60
2023-03-21T08:59:16.371Z,20.80
2023-03-21T09:01:43.982Z,21.08
2023-03-21T09:04:11.848Z,21.25
2023-03-21T09:06:48.051Z,21.67
2023-03-21T09:09:15.795Z,20.63
2023-03-21T09:11:43.735Z,22.17
2023-03-21T09:14:11.702Z,20.23
2023-03-21T09:16:39.517Z,21.75
2023-03-21T09:19:08.523Z,20.02
2023-03-21T09:21:36.705Z,23.35
2023-03-21T09:24:06.537Z,22.42
2023-03-21T09:26:34.384Z,22.17
2023-03-21T09:29:05.844Z,25.75
2023-03-21T09:31:33.703Z,22.00
2023-03-21T09:34:01.899Z,24.73
2023-03-21T09:36:30.477Z,22.70
2023-03-21T09:38:58.119Z,23.75
2023-03-21T09:41:46.951Z,22.55
2023-03-21T09:44:31.275Z,21.20
2023-03-21T09:47:04.345Z,20.02
2023-03-21T09:49:34.578Z,21.40
2023-03-21T09:52:06.469Z,20.73
2023-03-21T09:54:38.405Z,19.92
2023-03-21T09:57:19.546Z,19.98
2023-03-21T09:59:49.650Z,18.17
2023-03-21T10:02:32.390Z,18.08
2023-03-21T10:05:00.674Z,19.35
2023-03-21T10:07:31.463Z,19.85
2023-03-21T10:10:00.617Z,19.17
2023-03-21T10:12:30.582Z,17.95
2023-03-21T10:15:01.615Z,17.80
2023-03-21T10:17:34.224Z,18.40
2023-03-21T10:20:13.202Z,16.73
2023-03-21T10:22:41.313Z,17.23
2023-03-21T10:25:12.635Z,18.48
2023-03-21T10:27:41.617Z,15.10
2023-03-21T10:30:19.024Z,17.77
2023-03-21T10:32:46.851Z,15.75
2023-03-21T10:35:15.321Z,15.50
2023-03-21T10:37:42.947Z,15.15
2023-03-21T10:40:16.862Z,14.90
2023-03-21T10:42:45.723Z,13.65
2023-03-21T10:45:19.920Z,15.65
2023-03-21T10:47:49.173Z,15.15
2023-03-21T10:50:20.281Z,16.73
2023-03-21T10:52:51.079Z,16.17
2023-03-21T10:55:22.861Z,17.58
2023-03-21T10:57:54.779Z,15.27
2023-03-21T11:00:26.073Z,17.70
2023-03-21T11:02:54.761Z,16.20
2023-03-21T11:05:25.144Z,17.50
2023-03-21T11:08:01.471Z,17.83
2023-03-21T11:10:31.134Z,18.35
2023-03-21T11:13:05.302Z,18.45
2023-03-21T11:15:39.142Z,16.95
2023-03-21T11:18:15.782Z,18.73
2023-03-21T11:20:49.768Z,18.88
2023-03-21T11:23:20.437Z,16.98
2023-03-21T11:25:51.159Z,20.10
2023-03-21T11:28:23.347Z,18.88
2023-03-21T11:30:54.118Z,17.85
2023-03-21T11:33:23.851Z,19.23
2023-03-21T11:36:03.046Z,18.15
2023-03-21T11:38:34.654Z,18.38
2023-03-21T11:41:03.618Z,18.33
2023-03-21T11:43:35.601Z,19.25
2023-03-21T11:46:08.624Z,17.90
2023-03-21T11:48:40.757Z,19.38
2023-03-21T11:51:19.596Z,18.63
2023-03-21T11:53:52.351Z,19.73
2023-03-21T11:56:26.411Z,19.67
2023-03-21T11:59:18.125Z,18.75
2023-03-21T12:02:03.262Z,19.17
2023-03-21T12:04:42.190Z,17.38
2023-03-21T12:07:28.589Z,17.20
2023-03-21T12:10:02.138Z,14.63
2023-03-21T12:12:39.799Z,16.55
2023-03-21T12:15:15.928Z,15.13
2023-03-21T12:17:50.451Z,14.57
2023-03-21T12:20:25.964Z,14.18
2023-03-21T12:23:08.042Z,13.18
2023-03-21T12:25:42.770Z,14.38
2023-03-21T12:28:31.929Z,13.80
2023-03-21T12:31:09.873Z,15.10
2023-03-21T12:33:51.167Z,12.43
2023-03-21T12:36:34.479Z,12.60
2023-03-21T12:39:12.008Z,11.80
2023-03-21T12:41:45.461Z,10.32
2023-03-21T12:44:15.837Z,9.98
2023-03-21T12:46:48.472Z,10.85
2023-03-21T12:49:22.019Z,11.85
2023-03-21T12:51:55.246Z,11.75
2023-03-21T12:54:29.547Z,9.95
2023-03-21T12:57:03.213Z,10.70
2023-03-21T12:59:37.223Z,9.65
2023-03-21T13:02:18.423Z,9.77
2023-03-21T13:04:52.445Z,10.27
2023-03-21T13:07:22.686Z,9.70
2023-03-21T13:09:51.242Z,10.35
2023-03-21T13:12:26.753Z,9.93
2023-03-21T13:15:15.107Z,10.77
2023-03-21T13:17:53.351Z,10.32
2023-03-21T13:20:27.344Z,9.45
2023-03-21T13:22:54.889Z,10.45
2023-03-21T13:25:24.958Z,10.68
2023-03-21T13:27:54.375Z,9.52
2023-03-21T13:30:26.058Z,9.75
2023-03-21T13:33:04.951Z,10.10
2023-03-21T13:35:37.973Z,10.65
2023-03-21T13:38:12.835Z,10.02
2023-03-21T13:40:43.277Z,10.77
2023-03-21T13:43:52.478Z,10.70
2023-03-21T13:46:50.609Z,10.68
2023-03-21T13:49:29.930Z,10.27
2023-03-21T13:51:59.722Z,9.73
2023-03-21T13:54:52.071Z,10.30
2023-03-21T13:57:38.166Z,8.93
2023-03-21T14:00:18.872Z,9.27
2023-03-21T14:02:59.619Z,9.48
2023-03-21T14:05:30.057Z,10.40
2023-03-21T14:08:12.424Z,9.77
2023-03-21T14:10:46.088Z,10.15
2023-03-21T14:13:17.954Z,10.25
2023-03-21T14:15:55.396Z,10.95
2023-03-21T14:18:52.465Z,11.02
2023-03-21T14:21:24.186Z,11.13
2023-03-21T14:24:00.302Z,10.20
2023-03-21T14:26:30.647Z,11.05
2023-03-21T14:28:58.975Z,10.98
2023-03-21T14:31:27.258Z,10.98
2023-03-21T14:33:57.737Z,11.35
2023-03-21T14:36:29.304Z,11.75
2023-03-21T14:39:03.764Z,11.27
2023-03-21T14:41:33.545Z,12.65
2023-03-21T14:44:25.136Z,10.85
2023-03-21T14:46:54.204Z,12.25
2023-03-21T14:49:27.123Z,12.77
2023-03-21T14:51:58.840Z,11.98
2023-03-21T14:54:28.178Z,12.77
2023-03-21T14:57:00.838Z,11.32
2023-03-21T14:59:33.776Z,11.40
2023-03-21T15:02:03.764Z,11.88
2023-03-21T15:04:33.142Z,11.05
2023-03-21T15:07:05.069Z,11.55
2023-03-21T15:09:34.979Z,10.98
2023-03-21T15:12:09.122Z,12.00
2023-03-21T15:14:38.350Z,11.35
2023-03-21T15:17:07.619Z,11.60
2023-03-21T15:19:39.853Z,10.65
2023-03-21T15:22:16.396Z,11.38
2023-03-21T15:24:47.839Z,10.73
2023-03-21T15:27:18.696Z,10.63
2023-03-21T15:29:47.123Z,11.95
2023-03-21T15:32:18.047Z,10.88
2023-03-21T15:34:46.399Z,10.55
2023-03-21T15:37:23.208Z,9.70
2023-03-21T15:39:52.340Z,9.95
2023-03-21T15:42:30.221Z,9.50
2023-03-21T15:45:02.116Z,8.80
2023-03-21T15:47:44.119Z,9.82
2023-03-21T15:50:22.400Z,9.05
2023-03-21T15:52:53.082Z,9.40
2023-03-21T15:55:25.930Z,11.35
2023-03-21T15:57:55.755Z,9.25
2023-03-21T16:00:28.219Z,9.80
2023-03-21T16:02:59.216Z,8.70
2023-03-21T16:05:29.221Z,8.07
2023-03-21T16:08:03.748Z,7.28
2023-03-21T16:10:34.349Z,8.05
2023-03-21T16:13:01.872Z,6.55
2023-03-21T16:15:29.617Z,6.90
2023-03-21T16:17:58.897Z,6.82
2023-03-21T16:20:28.775Z,6.80
2023-03-21T16:22:56.348Z,7.05
2023-03-21T16:25:25.907Z,6.70
2023-03-21T16:27:53.551Z,7.93
2023-03-21T16:30:22.614Z,7.57
2023-03-21T16:32:51.002Z,6.85
2023-03-21T16:35:22.188Z,6.88
2023-03-21T16:37:50.667Z,6.60
2023-03-21T16:40:27.599Z,8.10
2023-03-21T16:42:55.265Z,8.25
2023-03-21T16:45:23.550Z,7.88
2023-03-21T16:47:51.726Z,8.30
2023-03-21T16:50:25.153Z,8.07
2023-03-21T16:52:52.732Z,7.47
2023-03-21T16:55:21.123Z,7.90
2023-03-21T16:57:52.162Z,8.45
2023-03-21T17:00:23.062Z,8.43
2023-03-21T17:02:51.579Z,8.65
2023-03-21T17:05:19.118Z,8.65
2023-03-21T17:07:47.070Z,7.97
2023-03-21T17:10:18.826Z,8.52
2023-03-21T17:12:46.530Z,8.73
2023-03-21T17:15:16.129Z,9.30
2023-03-21T17:17:44.080Z,9.30
2023-03-21T17:20:17.912Z,8.15
2023-03-21T17:22:45.723Z,8.02
2023-03-21T17:25:13.335Z,9.38
2023-03-21T17:27:41.700Z,9.02
2023-03-21T17:30:20.982Z,9.75
2023-03-21T17:32:49.246Z,8.90
2023-03-21T17:35:17.141Z,9.60
2023-03-21T17:37:50.102Z,10.10
2023-03-21T17:40:20.263Z,9.63
2023-03-21T17:42:47.820Z,9.77
2023-03-21T17:45:15.702Z,10.07
2023-03-21T17:47:45.024Z,10.25
2023-03-21T17:50:16.321Z,10.02
2023-03-21T17:52:43.999Z,10.55
2023-03-21T17:55:11.903Z,10.85
2023-03-21T17:57:41.280Z,11.18
2023-03-21T18:00:14.272Z,10.65
2023-03-21T18:02:42.044Z,10.77
2023-03-21T18:05:11.844Z,10.77
2023-03-21T18:10:29.108Z,11.80
2023-03-21T18:12:56.912Z,11.68
2023-03-21T18:15:30.074Z,11.45
2023-03-21T18:17:58.316Z,12.95
2023-03-21T18:20:49.976Z,11.82
2023-03-21T18:23:18.652Z,10.98
2023-03-21T18:25:46.581Z,11.55
2023-03-21T18:28:19.155Z,11.35
2023-03-21T18:33:41.185Z,12.07
2023-03-21T18:36:13.894Z,12.60
2023-03-21T18:38:42.173Z,12.25
2023-03-21T18:41:10.062Z,12.02
2023-03-21T18:44:00.922Z,12.70
2023-03-21T18:46:26.470Z,11.65
2023-03-21T18:48:55.101Z,12.50
2023-03-21T18:51:24.226Z,12.65
2023-03-21T18:53:51.891Z,12.02
2023-03-21T18:57:06.108Z,13.05
2023-03-21T18:59:08.478Z,12.80
2023-03-21T19:01:36.130Z,12.43
2023-03-21T19:04:21.003Z,12.50
2023-03-21T19:06:53.009Z,12.40
2023-03-21T19:09:29.103Z,11.60
2023-03-21T19:11:58.444Z,10.75
2023-03-21T19:14:26.010Z,11.85
2023-03-21T19:17:55.917Z,12.43
2023-03-21T19:19:42.609Z,13.93
2023-03-21T19:22:11.739Z,12.65
2023-03-21T19:24:40.630Z,12.45
2023-03-21T19:27:08.551Z,12.70
2023-03-21T19:29:36.108Z,11.75
2023-03-21T19:32:03.767Z,12.73
2023-03-21T19:34:31.404Z,11.68
2023-03-21T19:36:59.062Z,11.43
2023-03-21T19:39:27.978Z,12.48
2023-03-21T19:42:14.801Z,12.38
2023-03-21T19:44:43.432Z,11.82
2023-03-21T19:47:11.289Z,12.35
2023-03-21T19:50:20.861Z,11.43
2023-03-21T19:52:28.132Z,11.15
2023-03-21T19:54:56.993Z,11.43
2023-03-21T19:57:25.027Z,11.73
2023-03-21T19:59:54.470Z,10.90
2023-03-21T20:02:34.972Z,11.15
2023-03-21T20:05:03.801Z,10.95
2023-03-21T20:07:32.641Z,11.05
2023-03-21T20:10:01.654Z,10.73
2023-03-21T20:12:29.330Z,10.90
2023-03-21T20:15:12.126Z,10.48
2023-03-21T20:17:44.791Z,10.77
2023-03-21T20:20:15.053Z,8.85
2023-03-21T20:23:05.643Z,9.70
2023-03-21T20:25:33.135Z,9.38
2023-03-21T20:28:15.055Z,10.40
2023-03-21T20:30:48.939Z,9.27
2023-03-21T20:33:16.719Z,9.50
2023-03-21T20:38:33.406Z,8.32
2023-03-21T20:41:04.118Z,9.43
2023-03-21T20:46:19.729Z,9.73
2023-03-21T20:48:48.808Z,9.18
2023-03-21T20:52:27.440Z,9.25
2023-03-21T20:54:05.242Z,9.55
2023-03-21T20:56:34.517Z,9.15
2023-03-21T20:59:15.771Z,7.72
2023-03-21T21:01:45.246Z,8.93
2023-03-21T21:04:19.254Z,8.15
2023-03-21T21:06:47.636Z,9.00
2023-03-21T21:09:15.445Z,8.23
2023-03-21T21:14:31.862Z,9.82
2023-03-21T21:17:07.744Z,9.07
2023-03-21T21:19:45.977Z,9.05
2023-03-21T21:22:13.478Z,8.55
2023-03-21T21:24:40.991Z,9.45
2023-03-21T21:27:09.890Z,8.45
2023-03-21T21:29:37.622Z,8.60
2023-03-21T21:32:05.505Z,8.65
2023-03-21T21:34:33.117Z,8.48
2023-03-21T21:37:00.675Z,8.82
2023-03-21T21:39:31.384Z,8.68
2023-03-21T21:41:58.964Z,9.65
2023-03-21T21:44:27.845Z,9.40
2023-03-21T21:46:55.435Z,8.32
2023-03-21T21:49:23.017Z,9.70
2023-03-21T21:51:50.706Z,9.10
2023-03-21T21:54:18.891Z,9.93
2023-03-21T21:56:48.208Z,9.35
2023-03-21T21:59:17.047Z,9.05
2023-03-21T22:01:46.550Z,9.73
2023-03-21T22:04:14.514Z,8.52
2023-03-21T22:06:42.903Z,9.57
2023-03-21T22:09:11.110Z,9.60
2023-03-21T22:11:38.646Z,8.98
2023-03-21T22:14:06.177Z,9.27
2023-03-21T22:16:33.825Z,8.43
2023-03-21T22:19:02.721Z,8.95
2023-03-21T22:21:30.334Z,8.55
2023-03-21T22:23:57.971Z,8.45
2023-03-21T22:26:25.709Z,8.30
2023-03-21T22:28:53.506Z,7.88
2023-03-21T22:31:22.582Z,7.28
2023-03-21T22:33:50.330Z,7.60
2023-03-21T22:36:20.032Z,8.63
2023-03-21T22:38:47.799Z,7.60
2023-03-21T22:41:15.381Z,7.63
2023-03-21T22:43:42.899Z,8.27
2023-03-21T22:46:10.482Z,7.28
2023-03-21T22:48:38.041Z,8.13
2023-03-21T22:51:05.936Z,7.65
2023-03-21T22:53:34.835Z,7.68
2023-03-21T22:56:02.396Z,7.47
2023-03-21T22:58:29.906Z,8.02
2023-03-21T23:01:01.683Z,7.05
2023-03-21T23:03:29.309Z,7.95
2023-03-21T23:06:00.191Z,7.40
2023-03-21T23:08:28.041Z,7.57
2023-03-21T23:10:57.050Z,8.43
2023-03-21T23:13:26.585Z,7.97
2023-03-21T23:15:54.139Z,8.43
2023-03-21T23:18:21.667Z,7.72
2023-03-21T23:20:50.194Z,8.60
2023-03-21T23:23:18.189Z,8.02
2023-03-21T23:25:46.134Z,8.48
2023-03-21T23:28:15.310Z,8.13
2023-03-21T23:30:43.002Z,8.27
2023-03-21T23:33:10.782Z,7.97
2023-03-21T23:35:39.241Z,9.13
2023-03-21T23:38:06.956Z,8.05
2023-03-21T23:40:34.508Z,8.60
2023-03-21T23:43:02.049Z,9.60
2023-03-21T23:45:30.932Z,9.07
2023-03-21T23:47:58.518Z,9.98
2023-03-21T23:50:26.134Z,9.32
2023-03-21T23:52:53.717Z,10.10
2023-03-21T23:55:21.307Z,9.27
2023-03-21T23:57:49.717Z,10.00
